Terminal Aerodrome Forecast
Issued by NWS

Home | Current Version | Previous Version | Text Only | Print | Product List | Glossary On
Versions: 1 2 3 4 5 6 7 8 9 10 11 12 13 14 15 16 17 18 19
000
FTUS41 KPBZ 211313 AAA
TAFDUJ
TAF AMD
KDUJ 211313Z 2113/2212 25015G30KT P6SM BKN050
     FM211900 24018G35KT P6SM VCSH BKN100
     FM220100 23010G20KT P6SM VCSH BKN050=

USA.gov is the U.S. government's official web portal to all federal, state and local government web resources and services.